Portada
METAR-TAF:

METAR-TAF

Aeroports :

Mahikeng, Sud-àfrica

latitud: 25-47S, longitud: 025-32E, altitud: 1281 m

Observació

L'informe es va fer fa 33 minuts, a les 06:00 UTC
Vent 3 kt del Est/Sud-Est
Temperatura 9°C
Humitat 71%
Pressió 1032 hPa
Visibilitat 10 km o més
sense núvols per sota de 1500 mi sense presència de cumulonimbus.

METAR: FAMM 250600Z 11003KT CAVOK 09/04 Q1032 NOSIG

Hora: 08:33 (06:33 UTC)

Pronòstic

L'informe es va fer fa 21 hores i 33 minuts, a les 09:00 UTC
Pronòstic vàlid del 24 a les 10 UTC al 24 a les 18 UTC
Vent 3 kt amb direcció variable
Visibilitat 10 km o més
Núvols disperses a una alçada de 4000 ft

TAF: FAMM 240900Z 2410/2418 VRB03KT 9999 SCT040 TX21/2412Z TN12/2418Z

Observacions i pronòstics meteorològics de més de 4000 aeroports (METAR i TAF).

Les estacions disponibles són els punts grocs i vermells al mapa.

Posi el ratolí al punt desitjat per veure el nom de l'estació.

Feu clic per veure les observacions i els pronòstics meteorològics.

Per canviar el mapa: feu clic els botons verds amb una creu de color negre per apropar; al botó verd amb un guió per allunyar la imatge; o en les fletxes verdes per a mapes adjacents.


METAR-TAF: